TimeCDT,TemperatureF,Dew PointF,Humidity,Sea Level PressureIn,VisibilityMPH,Wind Direction,Wind SpeedMPH,Gust SpeedMPH,PrecipitationIn,Events,Conditions,WindDirDegrees,DateUTC
12:53 AM,64.9,59.0,81,30.20,10.0,ENE,3.5,-,N/A,,Clear,60,2013-09-17 05:53:00
1:53 AM,64.9,59.0,81,30.20,10.0,ENE,5.8,-,N/A,,Clear,60,2013-09-17 06:53:00
2:53 AM,64.0,60.1,87,30.19,10.0,ENE,4.6,-,N/A,,Scattered Clouds,70,2013-09-17 07:53:00
3:53 AM,63.0,60.1,90,30.19,9.0,NNE,3.5,-,N/A,,Clear,30,2013-09-17 08:53:00
4:53 AM,64.0,60.1,87,30.19,9.0,NE,5.8,-,N/A,,Partly Cloudy,50,2013-09-17 09:53:00
5:53 AM,64.0,60.1,87,30.19,9.0,NE,5.8,-,N/A,,Partly Cloudy,40,2013-09-17 10:53:00
6:53 AM,63.0,60.1,90,30.19,8.0,NE,5.8,-,N/A,,Mostly Cloudy,40,2013-09-17 11:53:00
7:53 AM,64.0,59.0,84,30.21,9.0,ENE,8.1,-,N/A,,Clear,70,2013-09-17 12:53:00
8:53 AM,66.0,60.1,81,30.20,9.0,ENE,5.8,-,N/A,,Partly Cloudy,70,2013-09-17 13:53:00
9:53 AM,70.0,61.0,73,30.21,10.0,Variable,5.8,-,N/A,,Partly Cloudy,0,2013-09-17 14:53:00
10:53 AM,73.9,62.1,66,30.20,10.0,Calm,Calm,-,N/A,,Partly Cloudy,0,2013-09-17 15:53:00
11:53 AM,75.9,63.0,64,30.18,10.0,SSE,4.6,-,N/A,,Clear,150,2013-09-17 16:53:00
12:53 PM,78.1,63.0,60,30.16,10.0,SE,4.6,-,N/A,,Clear,130,2013-09-17 17:53:00
1:53 PM,81.0,63.0,54,30.13,10.0,Calm,Calm,-,N/A,,Partly Cloudy,0,2013-09-17 18:53:00
2:53 PM,82.0,63.0,52,30.11,10.0,NE,5.8,-,N/A,,Clear,50,2013-09-17 19:53:00
3:53 PM,82.0,63.0,52,30.09,10.0,East,4.6,-,N/A,,Clear,100,2013-09-17 20:53:00
4:53 PM,82.9,63.0,51,30.09,10.0,Variable,4.6,-,N/A,,Partly Cloudy,0,2013-09-17 21:53:00
5:53 PM,81.0,64.0,56,30.08,10.0,Calm,Calm,-,N/A,,Mostly Cloudy,0,2013-09-17 22:53:00
6:53 PM,75.9,64.9,69,30.08,10.0,East,4.6,-,N/A,,Mostly Cloudy,80,2013-09-17 23:53:00
7:53 PM,73.0,64.9,76,30.08,10.0,ENE,3.5,-,N/A,,Partly Cloudy,70,2013-09-18 00:53:00
8:53 PM,71.1,64.9,81,30.08,10.0,East,3.5,-,N/A,,Clear,90,2013-09-18 01:53:00
9:53 PM,69.1,64.0,84,30.09,10.0,Calm,Calm,-,N/A,,Clear,0,2013-09-18 02:53:00
10:53 PM,68.0,63.0,84,30.09,10.0,ESE,4.6,-,N/A,,Clear,120,2013-09-18 03:53:00
11:53 PM,69.1,64.0,84,30.08,10.0,Calm,Calm,-,N/A,,Clear,0,2013-09-18 04:53:00